Aviation Digital Data Service (ADDS)

Output produced by METARs form (0030 UTC 29 June 2017)
found at http://aviationweather.gov/adds/metars/
 
KCAK 282331Z 2900/2924 19007KT P6SM BKN200 
     FM291300 21014G22KT P6SM FEW150 BKN200